createdAt,value
2022-11-01T00:02:01.059Z,12.48
2022-11-01T00:04:27.763Z,12.44
2022-11-01T00:06:54.434Z,12.40
2022-11-01T00:09:21.383Z,12.51
2022-11-01T00:11:47.965Z,12.51
2022-11-01T00:14:17.235Z,12.49
2022-11-01T00:16:44.139Z,12.50
2022-11-01T00:19:11.200Z,12.49
2022-11-01T00:21:37.746Z,12.48
2022-11-01T00:24:04.516Z,12.37
2022-11-01T00:26:31.169Z,12.40
2022-11-01T00:28:57.734Z,12.45
2022-11-01T00:31:24.997Z,12.50
2022-11-01T00:33:51.532Z,12.49
2022-11-01T00:36:18.396Z,12.46
2022-11-01T00:38:45.055Z,12.47
2022-11-01T00:41:11.597Z,12.44
2022-11-01T00:43:38.152Z,12.45
2022-11-01T00:46:05.331Z,12.43
2022-11-01T00:48:32.155Z,12.34
2022-11-01T00:50:58.894Z,12.40
2022-11-01T00:53:25.646Z,12.25
2022-11-01T00:55:52.530Z,12.37
2022-11-01T00:58:19.159Z,12.35
2022-11-01T01:00:47.577Z,12.35
2022-11-01T01:03:14.238Z,12.40
2022-11-01T01:05:40.804Z,12.30
2022-11-01T01:08:07.342Z,12.30
2022-11-01T01:10:35.896Z,12.47
2022-11-01T01:13:03.065Z,12.45
2022-11-01T01:15:29.934Z,12.52
2022-11-01T01:17:56.535Z,12.38
2022-11-01T01:20:23.928Z,12.50
2022-11-01T01:22:50.670Z,12.36
2022-11-01T01:25:17.771Z,12.44
2022-11-01T01:27:44.375Z,12.45
2022-11-01T01:30:11.699Z,12.47
2022-11-01T01:32:38.660Z,12.46
2022-11-01T01:35:05.737Z,12.44
2022-11-01T01:37:32.378Z,12.37
2022-11-01T01:39:59.007Z,12.50
2022-11-01T01:42:37.460Z,12.51
2022-11-01T01:45:27.303Z,12.56
2022-11-01T01:47:56.104Z,12.56
2022-11-01T01:50:35.464Z,12.52
2022-11-01T01:53:17.405Z,12.56
2022-11-01T01:55:54.021Z,12.55
2022-11-01T01:58:25.170Z,12.55
2022-11-01T02:00:54.113Z,12.56
2022-11-01T02:03:23.560Z,12.61
2022-11-01T02:06:07.790Z,12.59
2022-11-01T02:08:35.442Z,12.73
2022-11-01T02:11:05.504Z,12.73
2022-11-01T02:13:32.359Z,12.75
2022-11-01T02:16:37.591Z,12.76
2022-11-01T02:19:09.901Z,12.79
2022-11-01T02:21:48.450Z,12.77
2022-11-01T02:24:52.451Z,12.80
2022-11-01T02:27:24.865Z,12.71
2022-11-01T02:30:14.969Z,12.74
2022-11-01T02:33:00.016Z,12.86
2022-11-01T02:35:40.532Z,12.87
2022-11-01T02:38:22.373Z,12.88
2022-11-01T02:41:08.457Z,12.91
2022-11-01T02:43:52.459Z,12.95
2022-11-01T02:46:40.176Z,12.97
2022-11-01T02:49:09.334Z,13.00
2022-11-01T02:51:37.723Z,12.93
2022-11-01T02:54:10.737Z,13.06
2022-11-01T02:56:39.478Z,13.04
2022-11-01T02:59:12.432Z,13.02
2022-11-01T03:01:42.218Z,12.82
2022-11-01T03:04:08.832Z,12.96
2022-11-01T03:06:46.202Z,12.97
2022-11-01T03:09:14.589Z,13.02
2022-11-01T03:12:03.682Z,13.01
2022-11-01T03:14:44.432Z,13.01
2022-11-01T03:17:25.468Z,13.03
2022-11-01T03:20:06.014Z,13.07
2022-11-01T03:22:48.915Z,13.12
2022-11-01T03:25:44.417Z,13.16
2022-11-01T03:28:28.658Z,13.20
2022-11-01T03:31:21.377Z,13.24
2022-11-01T03:34:15.920Z,13.24
2022-11-01T03:36:49.854Z,13.30
2022-11-01T03:39:22.007Z,13.31
2022-11-01T03:41:54.477Z,13.29
2022-11-01T03:44:21.401Z,13.25
2022-11-01T03:46:49.106Z,13.20
2022-11-01T03:49:19.780Z,13.17
2022-11-01T03:51:46.694Z,13.12
2022-11-01T03:54:13.305Z,13.02
2022-11-01T03:56:43.174Z,12.95
2022-11-01T03:59:10.808Z,12.91
2022-11-01T04:01:37.982Z,12.88
2022-11-01T04:04:04.755Z,12.84
2022-11-01T04:06:31.510Z,12.82
2022-11-01T04:08:58.066Z,12.77
2022-11-01T04:11:24.652Z,12.74
2022-11-01T04:13:51.319Z,12.76
2022-11-01T04:16:36.724Z,12.58
2022-11-01T04:19:22.028Z,12.71
2022-11-01T04:21:48.651Z,12.59
2022-11-01T04:24:21.251Z,12.71
2022-11-01T04:26:48.462Z,12.65
2022-11-01T04:29:15.032Z,12.69
2022-11-01T04:31:41.569Z,12.54
2022-11-01T04:34:08.578Z,12.68
2022-11-01T04:36:37.314Z,12.74
2022-11-01T04:39:03.880Z,12.75
2022-11-01T04:41:30.451Z,12.68
2022-11-01T04:43:59.063Z,12.77
2022-11-01T04:46:26.021Z,12.71
2022-11-01T04:48:52.634Z,12.72
2022-11-01T04:51:19.164Z,12.75
2022-11-01T04:53:45.705Z,12.73
2022-11-01T04:56:13.569Z,12.74
2022-11-01T04:58:44.747Z,12.63
2022-11-01T05:01:13.668Z,12.78
2022-11-01T05:03:40.385Z,12.77
2022-11-01T05:06:06.963Z,12.72
2022-11-01T05:08:36.862Z,12.69
2022-11-01T05:11:03.490Z,12.68
2022-11-01T05:13:30.235Z,12.58
2022-11-01T05:16:18.365Z,12.70
2022-11-01T05:18:43.475Z,12.75
2022-11-01T05:21:10.089Z,12.76
2022-11-01T05:23:36.757Z,12.77
2022-11-01T05:26:03.337Z,12.75
2022-11-01T05:28:29.863Z,12.74
2022-11-01T05:30:57.931Z,12.75
2022-11-01T05:33:24.482Z,12.74
2022-11-01T05:35:51.122Z,12.78
2022-11-01T05:38:17.720Z,12.75
2022-11-01T05:40:44.251Z,12.76
2022-11-01T05:43:10.863Z,12.70
2022-11-01T05:45:37.958Z,12.81
2022-11-01T05:48:04.811Z,12.84
2022-11-01T05:50:31.731Z,12.85
2022-11-01T05:53:08.313Z,12.86
2022-11-01T05:55:35.783Z,12.86
2022-11-01T05:58:02.498Z,12.93
2022-11-01T06:00:29.226Z,12.83
2022-11-01T06:03:00.984Z,12.82
2022-11-01T06:05:28.654Z,12.89
2022-11-01T06:07:55.348Z,13.07
2022-11-01T06:10:22.086Z,13.10
2022-11-01T06:12:48.773Z,13.11
2022-11-01T06:15:15.474Z,13.12
2022-11-01T06:17:42.124Z,13.14
2022-11-01T06:20:09.468Z,13.15
2022-11-01T06:22:36.420Z,13.17
2022-11-01T06:25:03.600Z,13.16
2022-11-01T06:27:30.539Z,13.18
2022-11-01T06:29:57.049Z,12.94
2022-11-01T06:32:23.558Z,13.15
2022-11-01T06:34:50.336Z,13.28
2022-11-01T06:37:16.941Z,13.31
2022-11-01T06:39:44.134Z,13.41
2022-11-01T06:42:10.677Z,13.49
2022-11-01T06:44:37.207Z,13.55
2022-11-01T06:47:03.939Z,13.57
2022-11-01T06:49:30.596Z,13.52
2022-11-01T06:51:58.775Z,13.72
2022-11-01T06:54:25.799Z,13.74
2022-11-01T06:56:52.323Z,13.66
2022-11-01T06:59:21.164Z,13.83
2022-11-01T07:01:47.824Z,13.82
2022-11-01T07:04:14.488Z,13.81
2022-11-01T07:06:41.416Z,13.85
2022-11-01T07:09:08.034Z,13.81
2022-11-01T07:11:34.726Z,13.82
2022-11-01T07:14:01.347Z,13.88
2022-11-01T07:16:29.366Z,13.84
2022-11-01T07:18:56.104Z,13.96
2022-11-01T07:21:22.990Z,13.94
2022-11-01T07:23:50.142Z,14.03
2022-11-01T07:26:16.922Z,14.05
2022-11-01T07:28:43.527Z,14.11
2022-11-01T07:31:10.202Z,14.17
2022-11-01T07:33:36.907Z,14.22
2022-11-01T07:36:04.793Z,14.24
2022-11-01T07:38:31.762Z,14.26
2022-11-01T07:40:58.486Z,14.28
2022-11-01T07:43:25.295Z,14.28
2022-11-01T07:45:52.077Z,14.30
2022-11-01T07:48:19.937Z,14.37
2022-11-01T07:50:46.705Z,14.35
2022-11-01T07:53:14.759Z,14.33
2022-11-01T07:55:42.480Z,14.36
2022-11-01T07:58:10.049Z,14.21
2022-11-01T08:00:37.802Z,14.38
2022-11-01T08:03:12.722Z,14.42
2022-11-01T08:05:39.747Z,14.48
2022-11-01T08:08:07.169Z,14.46
2022-11-01T08:10:35.572Z,14.42
2022-11-01T08:13:14.792Z,14.33
2022-11-01T08:15:41.677Z,14.36
2022-11-01T08:18:10.136Z,14.33
2022-11-01T08:20:36.835Z,14.38
2022-11-01T08:23:03.982Z,14.39
2022-11-01T08:25:31.184Z,14.45
2022-11-01T08:28:06.237Z,14.60
2022-11-01T08:30:33.726Z,14.62
2022-11-01T08:33:02.368Z,14.88
2022-11-01T08:35:29.667Z,14.91
2022-11-01T08:37:56.466Z,14.93
2022-11-01T08:40:22.991Z,14.95
2022-11-01T08:42:51.001Z,14.92
2022-11-01T08:45:18.025Z,14.91
2022-11-01T08:47:45.048Z,14.93
2022-11-01T08:50:14.996Z,14.98
2022-11-01T08:52:41.874Z,14.96
2022-11-01T08:55:10.114Z,14.95
2022-11-01T08:57:36.842Z,14.97
2022-11-01T09:00:07.136Z,14.95
2022-11-01T09:02:34.820Z,14.86
2022-11-01T09:05:05.156Z,14.83
2022-11-01T09:07:36.053Z,14.97
2022-11-01T09:10:02.984Z,15.10
2022-11-01T09:12:29.907Z,15.13
2022-11-01T09:14:56.530Z,15.13
2022-11-01T09:17:23.354Z,15.22
2022-11-01T09:19:50.048Z,15.31
2022-11-01T09:22:17.581Z,15.38
2022-11-01T09:24:44.141Z,15.31
2022-11-01T09:27:10.882Z,15.22
2022-11-01T09:29:37.836Z,15.25
2022-11-01T09:32:04.820Z,15.26
2022-11-01T09:34:31.310Z,15.31
2022-11-01T09:36:58.072Z,15.27
2022-11-01T09:39:24.855Z,15.30
2022-11-01T09:41:56.416Z,15.25
2022-11-01T09:44:26.055Z,15.39
2022-11-01T09:47:21.965Z,15.62
2022-11-01T09:49:57.719Z,15.66
2022-11-01T09:52:25.510Z,15.70
2022-11-01T09:54:52.176Z,15.67
2022-11-01T09:57:28.064Z,15.92
2022-11-01T10:00:04.304Z,15.81
2022-11-01T10:02:36.548Z,15.90
2022-11-01T10:05:31.800Z,15.86
2022-11-01T10:08:10.783Z,15.83
2022-11-01T10:10:41.936Z,15.55
2022-11-01T10:13:29.884Z,15.61
2022-11-01T10:16:00.536Z,15.59
2022-11-01T10:18:35.088Z,15.47
2022-11-01T10:21:08.574Z,15.56
2022-11-01T10:23:46.220Z,15.50
2022-11-01T10:26:29.273Z,15.53
2022-11-01T10:29:20.358Z,15.54
2022-11-01T10:31:50.896Z,15.54
2022-11-01T10:34:17.255Z,15.65
2022-11-01T10:36:45.099Z,15.54
2022-11-01T10:42:17.631Z,15.81
2022-11-01T10:44:48.487Z,15.74
2022-11-01T10:47:19.165Z,15.91
2022-11-01T10:50:05.522Z,16.22
2022-11-01T10:52:45.528Z,16.40
2022-11-01T10:55:19.659Z,16.63
2022-11-01T10:57:53.830Z,16.82
2022-11-01T11:00:21.703Z,16.93
2022-11-01T11:02:55.751Z,17.01
2022-11-01T11:05:26.339Z,17.11
2022-11-01T11:07:53.110Z,17.24
2022-11-01T11:10:27.100Z,17.22
2022-11-01T11:13:01.295Z,17.30
2022-11-01T11:15:44.226Z,17.39
2022-11-01T11:18:30.673Z,17.42
2022-11-01T11:21:00.485Z,17.47
2022-11-01T11:23:34.068Z,17.52
2022-11-01T11:26:36.155Z,17.65
2022-11-01T11:29:05.504Z,17.68
2022-11-01T11:31:37.586Z,17.62
2022-11-01T11:34:26.086Z,17.70
2022-11-01T11:36:55.130Z,17.70
2022-11-01T11:39:27.684Z,17.82
2022-11-01T11:41:54.831Z,17.88
2022-11-01T11:44:55.911Z,17.92
2022-11-01T11:47:25.832Z,17.83
2022-11-01T11:49:54.248Z,17.72
2022-11-01T11:52:28.666Z,17.50
2022-11-01T11:54:56.065Z,17.67
2022-11-01T11:57:30.032Z,17.59
2022-11-01T12:00:01.482Z,17.70
2022-11-01T12:02:32.605Z,17.68
2022-11-01T12:05:04.657Z,17.81
2022-11-01T12:07:37.906Z,17.81
2022-11-01T12:10:26.191Z,17.82
2022-11-01T12:12:53.438Z,17.50
2022-11-01T12:15:35.736Z,17.45
2022-11-01T12:18:14.699Z,17.36
2022-11-01T12:20:43.447Z,17.44
2022-11-01T12:23:27.007Z,17.36
2022-11-01T12:25:55.342Z,17.37
2022-11-01T12:28:42.916Z,17.46
2022-11-01T12:31:18.034Z,17.44
2022-11-01T12:33:51.863Z,17.34
2022-11-01T12:36:25.014Z,17.33
2022-11-01T12:38:59.736Z,17.42
2022-11-01T12:41:31.881Z,17.47
2022-11-01T12:44:05.764Z,17.47
2022-11-01T12:46:45.505Z,17.54
2022-11-01T12:49:40.338Z,17.52
2022-11-01T12:52:17.779Z,17.41
2022-11-01T12:54:58.439Z,17.52
2022-11-01T12:57:25.091Z,17.56
2022-11-01T12:59:52.216Z,17.59
2022-11-01T13:02:43.214Z,17.52
2022-11-01T13:05:19.228Z,17.53
2022-11-01T13:08:06.340Z,17.36
2022-11-01T13:10:48.180Z,17.43
2022-11-01T13:13:39.559Z,17.36
2022-11-01T13:16:16.393Z,17.40
2022-11-01T13:18:53.147Z,17.34
2022-11-01T13:21:46.440Z,17.41
2022-11-01T13:24:34.878Z,17.43
2022-11-01T13:27:11.071Z,17.45
2022-11-01T13:29:52.823Z,17.39
2022-11-01T13:32:28.987Z,17.31
2022-11-01T13:35:33.133Z,17.23
2022-11-01T13:38:20.612Z,17.17
2022-11-01T13:41:19.844Z,17.23
2022-11-01T13:43:56.163Z,17.22
2022-11-01T13:46:40.531Z,17.14
2022-11-01T13:49:10.122Z,17.06
2022-11-01T13:51:47.936Z,17.07
2022-11-01T13:54:25.819Z,17.06
2022-11-01T13:57:00.271Z,16.95
2022-11-01T13:59:37.536Z,16.93
2022-11-01T14:02:22.539Z,16.79
2022-11-01T14:05:13.656Z,16.88
2022-11-01T14:07:43.093Z,16.89
2022-11-01T14:10:31.814Z,16.86
2022-11-01T14:12:59.636Z,16.85
2022-11-01T14:15:28.552Z,16.82
2022-11-01T14:18:04.788Z,16.84
2022-11-01T14:20:31.627Z,16.80
2022-11-01T14:22:59.008Z,16.78
2022-11-01T14:25:30.073Z,16.82
2022-11-01T14:28:18.395Z,16.79
2022-11-01T14:30:49.395Z,16.77
2022-11-01T14:33:19.617Z,16.74
2022-11-01T14:35:54.094Z,16.69
2022-11-01T14:38:28.517Z,16.61
2022-11-01T14:41:00.272Z,16.58
2022-11-01T14:43:41.646Z,16.52
2022-11-01T14:46:22.809Z,16.49
2022-11-01T14:49:05.501Z,16.44
2022-11-01T14:51:43.345Z,16.41
2022-11-01T14:54:23.277Z,16.36
2022-11-01T14:56:52.774Z,16.33
2022-11-01T14:59:34.167Z,16.19
2022-11-01T15:02:07.454Z,16.10
2022-11-01T15:04:43.919Z,16.19
2022-11-01T15:07:29.387Z,16.03
2022-11-01T15:10:21.308Z,15.98
2022-11-01T15:12:59.054Z,16.04
2022-11-01T15:15:29.746Z,15.88
2022-11-01T15:17:59.255Z,15.90
2022-11-01T15:20:35.495Z,15.84
2022-11-01T15:23:09.861Z,15.71
2022-11-01T15:25:36.924Z,15.63
2022-11-01T15:28:03.623Z,15.63
2022-11-01T15:30:33.983Z,15.58
2022-11-01T15:33:20.520Z,15.60
2022-11-01T15:36:20.769Z,15.56
2022-11-01T15:38:54.557Z,15.55
2022-11-01T15:41:29.616Z,15.41
2022-11-01T15:43:59.236Z,15.39
2022-11-01T15:46:33.443Z,15.38
2022-11-01T15:49:15.532Z,15.35
2022-11-01T15:51:52.653Z,15.29
2022-11-01T15:54:48.054Z,15.20
2022-11-01T15:57:47.325Z,15.13
2022-11-01T16:00:30.965Z,15.06
2022-11-01T16:03:35.276Z,14.96
2022-11-01T16:06:11.040Z,14.83
2022-11-01T16:08:43.600Z,14.75
2022-11-01T16:11:11.422Z,14.68
2022-11-01T16:13:41.066Z,14.62
2022-11-01T16:16:14.866Z,14.59
2022-11-01T16:18:48.053Z,14.52
2022-11-01T16:21:25.418Z,14.45
2022-11-01T16:23:57.614Z,14.34
2022-11-01T16:26:24.591Z,14.27
2022-11-01T16:28:53.290Z,14.21
2022-11-01T16:31:22.845Z,14.10
2022-11-01T16:33:49.399Z,14.09
2022-11-01T16:36:18.930Z,14.07
2022-11-01T16:38:46.865Z,14.07
2022-11-01T16:41:20.503Z,14.06
2022-11-01T16:43:49.224Z,14.00
2022-11-01T16:46:15.754Z,13.86
2022-11-01T16:48:57.089Z,13.84
2022-11-01T16:51:28.249Z,13.84
2022-11-01T16:53:56.262Z,13.90
2022-11-01T16:56:50.074Z,13.82
2022-11-01T16:59:31.976Z,13.62
2022-11-01T17:01:59.089Z,13.65
2022-11-01T17:04:27.645Z,13.69
2022-11-01T17:06:55.925Z,13.64
2022-11-01T17:09:22.883Z,13.66
2022-11-01T17:11:51.717Z,13.67
2022-11-01T17:14:19.418Z,13.55
2022-11-01T17:16:47.786Z,13.67
2022-11-01T17:19:21.172Z,13.69
2022-11-01T17:21:49.496Z,13.70
2022-11-01T17:24:20.134Z,13.69
2022-11-01T17:26:46.820Z,13.69
2022-11-01T17:29:16.661Z,13.67
2022-11-01T17:31:43.226Z,13.56
2022-11-01T17:34:09.786Z,13.66
2022-11-01T17:36:38.267Z,13.52
2022-11-01T17:39:04.825Z,13.50
2022-11-01T17:41:31.367Z,13.65
2022-11-01T17:43:57.977Z,13.54
2022-11-01T17:46:25.868Z,13.59
2022-11-01T17:48:52.362Z,13.58
2022-11-01T17:51:19.019Z,13.50
2022-11-01T17:53:45.624Z,13.50
2022-11-01T17:56:12.126Z,13.46
2022-11-01T17:58:38.906Z,13.32
2022-11-01T18:01:07.498Z,13.41
2022-11-01T18:03:34.140Z,13.33
2022-11-01T18:06:00.776Z,13.32
2022-11-01T18:08:31.000Z,13.30
2022-11-01T18:11:10.924Z,13.24
2022-11-01T18:13:43.327Z,13.22
2022-11-01T18:16:25.091Z,13.24
2022-11-01T18:19:29.932Z,13.23
2022-11-01T18:22:24.452Z,13.23
2022-11-01T18:25:02.716Z,13.18
2022-11-01T18:27:37.560Z,13.10
2022-11-01T18:30:12.850Z,13.11
2022-11-01T18:32:48.696Z,13.08
2022-11-01T18:35:30.693Z,13.08
2022-11-01T18:38:10.740Z,12.88
2022-11-01T18:40:45.810Z,12.89
2022-11-01T18:43:12.417Z,12.90
2022-11-01T18:45:57.703Z,12.86
2022-11-01T18:48:29.085Z,12.85
2022-11-01T18:51:05.070Z,12.87
2022-11-01T18:53:33.022Z,12.84
2022-11-01T18:56:22.604Z,12.81
2022-11-01T18:58:51.213Z,12.77
2022-11-01T19:01:31.909Z,12.63
2022-11-01T19:04:11.077Z,12.66
2022-11-01T19:06:37.585Z,12.59
2022-11-01T19:09:24.338Z,12.53
2022-11-01T19:12:15.978Z,12.51
2022-11-01T19:14:44.235Z,12.42
2022-11-01T19:17:24.506Z,12.33
2022-11-01T19:19:53.691Z,12.32
2022-11-01T19:22:31.708Z,12.33
2022-11-01T19:24:59.574Z,12.37
2022-11-01T19:27:26.640Z,12.45
2022-11-01T19:29:57.756Z,12.45
2022-11-01T19:32:26.008Z,12.37
2022-11-01T19:34:53.957Z,12.41
2022-11-01T19:37:34.612Z,12.33
2022-11-01T19:40:09.928Z,12.32
2022-11-01T19:42:36.424Z,12.29
2022-11-01T19:45:28.824Z,12.14
2022-11-01T19:47:55.687Z,12.25
2022-11-01T19:50:36.098Z,12.19
2022-11-01T19:53:02.707Z,12.12
2022-11-01T19:55:43.662Z,12.11
2022-11-01T19:58:22.611Z,11.92
2022-11-01T20:00:49.658Z,11.99
2022-11-01T20:03:29.998Z,11.92
2022-11-01T20:05:56.727Z,11.85
2022-11-01T20:08:30.729Z,11.79
2022-11-01T20:10:57.331Z,11.75
2022-11-01T20:13:24.056Z,11.68
2022-11-01T20:15:50.582Z,11.68
2022-11-01T20:18:17.088Z,11.70
2022-11-01T20:20:45.853Z,11.72
2022-11-01T20:23:25.754Z,11.75
2022-11-01T20:25:53.185Z,11.68
2022-11-01T20:28:19.750Z,11.66
2022-11-01T20:30:46.328Z,11.67
2022-11-01T20:33:13.334Z,11.63
2022-11-01T20:35:39.901Z,11.56
2022-11-01T20:38:06.503Z,11.46
2022-11-01T20:40:33.034Z,11.35
2022-11-01T20:43:00.159Z,11.29
2022-11-01T20:45:26.974Z,11.23
2022-11-01T20:47:53.539Z,11.14
2022-11-01T20:50:20.186Z,11.05
2022-11-01T20:52:46.854Z,10.98
2022-11-01T20:55:13.448Z,10.95
2022-11-01T20:57:40.111Z,10.86
2022-11-01T21:00:09.902Z,10.79
2022-11-01T21:02:36.779Z,10.70
2022-11-01T21:05:24.033Z,10.64
2022-11-01T21:08:14.609Z,10.56
2022-11-01T21:10:43.194Z,10.50
2022-11-01T21:13:27.096Z,10.44
2022-11-01T21:15:56.136Z,10.40
2022-11-01T21:18:36.861Z,10.37
2022-11-01T21:21:15.298Z,10.35
2022-11-01T21:23:43.898Z,10.22
2022-11-01T21:26:17.468Z,10.23
2022-11-01T21:28:49.163Z,10.16
2022-11-01T21:31:15.663Z,10.27
2022-11-01T21:33:54.356Z,10.10
2022-11-01T21:36:20.877Z,10.08
2022-11-01T21:39:01.756Z,10.27
2022-11-01T21:41:44.940Z,10.23
2022-11-01T21:44:20.113Z,10.26
2022-11-01T21:46:49.505Z,10.24
2022-11-01T21:49:24.146Z,10.17
2022-11-01T21:51:51.122Z,10.10
2022-11-01T21:54:17.728Z,10.03
2022-11-01T21:56:44.321Z,9.89
2022-11-01T21:59:10.854Z,10.04
2022-11-01T22:01:39.459Z,9.97
2022-11-01T22:04:06.364Z,10.10
2022-11-01T22:06:32.879Z,10.06
2022-11-01T22:08:59.489Z,10.01
2022-11-01T22:11:31.529Z,9.96
2022-11-01T22:13:59.130Z,9.94
2022-11-01T22:16:25.819Z,9.95
2022-11-01T22:18:52.506Z,9.93
2022-11-01T22:21:19.082Z,9.92
2022-11-01T22:23:45.960Z,9.86
2022-11-01T22:26:12.755Z,9.94
2022-11-01T22:28:39.656Z,9.87
2022-11-01T22:31:06.635Z,9.87
2022-11-01T22:33:34.905Z,9.86
2022-11-01T22:36:07.011Z,9.87
2022-11-01T22:38:42.004Z,9.85
2022-11-01T22:41:14.111Z,9.83
2022-11-01T22:43:47.634Z,9.80
2022-11-01T22:46:21.679Z,9.67
2022-11-01T22:48:49.392Z,9.83
2022-11-01T22:51:22.729Z,9.77
2022-11-01T22:53:52.538Z,9.84
2022-11-01T22:56:19.362Z,9.62
2022-11-01T22:58:46.129Z,9.91
2022-11-01T23:01:23.499Z,9.95
2022-11-01T23:03:54.482Z,10.00
2022-11-01T23:06:20.926Z,10.05
2022-11-01T23:08:48.348Z,10.07
2022-11-01T23:11:37.492Z,10.12
2022-11-01T23:14:34.898Z,10.15
2022-11-01T23:17:01.681Z,10.16
2022-11-01T23:19:28.368Z,10.21
2022-11-01T23:21:54.943Z,10.19
2022-11-01T23:24:21.537Z,10.22
2022-11-01T23:26:48.094Z,10.23
2022-11-01T23:29:14.683Z,10.23
2022-11-01T23:31:41.331Z,10.18
2022-11-01T23:34:09.878Z,10.15
2022-11-01T23:36:38.296Z,10.14
2022-11-01T23:39:09.038Z,10.14
2022-11-01T23:41:41.728Z,10.11
2022-11-01T23:44:28.702Z,10.12
2022-11-01T23:47:04.165Z,10.11
2022-11-01T23:49:33.060Z,10.10
2022-11-01T23:52:00.417Z,10.13
2022-11-01T23:54:26.891Z,10.14
2022-11-01T23:56:54.955Z,9.96
2022-11-01T23:59:21.477Z,9.98
